Time;durP1;ratioP1;P1;durP2;ratioP2;P2;SDS_P1;SDS_P2;PMS_P1;PMS_P2;Temp;Humidity;BMP_temperature;BMP_pressure;BME280_temperature;BME280_humidity;BME280_pressure;Samples;Min_cycle;Max_cycle;Signal;HPM_P1;HPM_P2
2020/12/29 00:01:48;;;;;;;64.05;31.65;;;;;;;0.34;91.61;99043.88;1747257;80;21153;-72
2020/12/29 00:04:20;;;;;;;64.67;29.80;;;;;;;0.34;91.66;99045.80;1733972;82;21260;-71
2020/12/29 00:06:51;;;;;;;65.05;30.37;;;;;;;0.36;91.72;99057.16;1716182;81;21217;-71
2020/12/29 00:09:23;;;;;;;68.00;30.97;;;;;;;0.34;91.63;99054.72;1713416;82;21195;-71
2020/12/29 00:11:53;;;;;;;;;;;;;;;0.34;91.63;99040.37;1734718;82;22174;-71
2020/12/29 00:14:21;;;;;;;70.60;32.28;;;;;;;0.34;91.73;99054.72;1705420;83;20277;-72
2020/12/29 00:16:48;;;;;;;73.35;34.27;;;;;;;0.35;91.75;99047.41;1722679;82;21264;-71
2020/12/29 00:19:22;;;;;;;64.85;31.95;;;;;;;0.34;91.69;99046.59;1735168;82;21187;-72
2020/12/29 00:21:50;;;;;;;72.45;33.02;;;;;;;0.32;91.64;99031.15;1711847;82;21159;-71
2020/12/29 00:24:19;;;;;;;62.03;31.27;;;;;;;0.31;91.72;99046.30;1744488;81;21123;-72
2020/12/29 00:26:51;;;;;;;55.80;29.05;;;;;;;0.32;91.75;99058.79;1724572;82;21177;-72
2020/12/29 00:29:19;;;;;;;65.25;31.40;;;;;;;0.32;91.70;99062.33;1715077;83;21377;-71
2020/12/29 00:31:49;;;;;;;71.20;32.28;;;;;;;0.28;91.66;99053.08;1725780;82;21108;-71
2020/12/29 00:34:18;;;;;;;77.75;35.63;;;;;;;0.27;91.74;99051.45;1741261;81;21180;-71
2020/12/29 00:36:52;;;;;;;;;;;;;;;0.26;91.83;99067.42;1714961;83;21124;-71
2020/12/29 00:39:20;;;;;;;76.17;34.92;;;;;;;0.26;91.91;99066.62;1724224;82;20278;-71
2020/12/29 00:41:48;;;;;;;71.45;34.20;;;;;;;0.25;91.94;99061.73;1742863;81;21199;-71
2020/12/29 00:44:16;;;;;;;67.87;30.50;;;;;;;0.25;92.00;99064.45;1710888;83;21124;-72
2020/12/29 00:46:44;;;;;;;72.10;32.65;;;;;;;0.26;92.06;99078.82;1723401;81;21127;-71
2020/12/29 00:49:13;;;;;;;66.28;30.82;;;;;;;0.28;92.09;99077.47;1725810;82;21183;-71
2020/12/29 00:52:06;;;;;;;64.77;32.35;;;;;;;0.29;92.08;99083.16;1716423;83;21556;-71
2020/12/29 00:54:39;;;;;;;72.17;33.60;;;;;;;0.29;92.10;99080.44;1723364;82;22302;-70
2020/12/29 00:57:08;;;;;;;67.87;33.18;;;;;;;0.30;92.12;99059.58;1742761;81;21120;-69
2020/12/29 00:59:36;;;;;;;69.85;33.38;;;;;;;0.32;92.12;99058.79;1726343;82;21144;-70
2020/12/29 01:02:04;;;;;;;72.08;33.18;;;;;;;0.31;92.10;99047.12;1689469;83;21215;-70
2020/12/29 01:04:52;;;;;;;81.22;35.38;;;;;;;0.34;92.19;99049.86;1726244;81;21125;-69
2020/12/29 01:07:21;;;;;;;73.78;34.90;;;;;;;0.35;92.12;99045.53;1726332;82;22172;-70
2020/12/29 01:09:52;;;;;;;72.30;33.70;;;;;;;0.34;92.14;99049.30;1712744;83;21132;-70
2020/12/29 01:12:20;;;;;;;72.65;33.73;;;;;;;0.35;92.18;99034.69;1723770;82;21561;-70
2020/12/29 01:14:52;;;;;;;68.05;32.50;;;;;;;0.37;92.19;99049.33;1742182;81;21552;-70
2020/12/29 01:17:23;;;;;;;71.30;33.40;;;;;;;0.39;92.21;99034.98;1729999;81;21148;-71
2020/12/29 01:19:50;;;;;;;63.08;29.45;;;;;;;0.41;92.19;99044.99;1741893;81;21565;-71
2020/12/29 01:22:19;;;;;;;65.85;31.85;;;;;;;0.41;92.11;99047.70;1733767;82;21172;-70
2020/12/29 01:24:48;;;;;;;64.72;31.00;;;;;;;0.40;92.02;99042.02;1712975;83;21568;-69
2020/12/29 01:27:17;;;;;;;71.57;33.23;;;;;;;0.39;92.02;99046.35;1733872;82;21605;-70
2020/12/29 01:29:46;;;;;;;64.22;32.73;;;;;;;0.40;92.13;99036.59;1713316;83;21139;-71
2020/12/29 01:32:15;;;;;;;65.08;33.02;;;;;;;0.42;92.12;99045.29;1733776;82;22134;-70
2020/12/29 01:34:42;;;;;;;72.90;33.65;;;;;;;0.42;92.11;99040.40;1740252;81;21141;-71
2020/12/29 01:37:10;;;;;;;77.12;33.50;;;;;;;0.40;92.13;99033.89;1733327;82;21168;-70
2020/12/29 01:39:38;;;;;;;70.52;31.55;;;;;;;0.40;92.14;99029.81;1723239;83;21644;-70
2020/12/29 01:42:11;;;;;;;66.95;31.90;;;;;;;0.40;92.18;99023.57;1741342;81;21486;-71
2020/12/29 01:44:42;;;;;;;61.63;29.67;;;;;;;0.42;92.30;99011.93;1730849;81;21417;-71
2020/12/29 01:47:10;;;;;;;66.47;31.12;;;;;;;0.42;92.26;99003.27;1735581;82;21625;-70
2020/12/29 01:49:42;;;;;;;68.83;32.70;;;;;;;0.43;92.27;98996.75;1733499;82;21112;-71
2020/12/29 01:52:10;;;;;;;67.55;31.52;;;;;;;0.44;92.26;98971.29;1730727;82;21165;-71
2020/12/29 01:54:40;;;;;;;62.78;30.77;;;;;;;0.45;92.26;98978.86;1719941;83;21164;-71
2020/12/29 01:57:08;;;;;;;71.17;33.23;;;;;;;0.46;92.25;98984.02;1723064;82;21371;-71
2020/12/29 01:59:38;;;;;;;60.58;30.30;;;;;;;0.46;92.20;98983.22;1733122;82;21649;-71
2020/12/29 02:02:06;;;;;;;62.95;30.37;;;;;;;0.45;92.20;98978.86;1734617;82;21172;-71
2020/12/29 02:04:35;;;;;;;67.47;30.52;;;;;;;0.45;92.30;98976.97;1711817;82;21186;-71
2020/12/29 02:07:04;;;;;;;62.60;29.50;;;;;;;0.47;92.38;98959.91;1709073;83;21575;-70
2020/12/29 02:09:44;;;;;;;56.88;27.25;;;;;;;0.50;92.33;98967.21;1731840;82;21195;-70
2020/12/29 02:12:28;;;;;;;60.25;29.92;;;;;;;0.50;92.26;98961.79;1741756;80;21153;-70
2020/12/29 02:14:59;;;;;;;58.08;28.35;;;;;;;0.47;92.25;98961.27;1734550;82;21724;-71
2020/12/29 02:17:29;;;;;;;55.28;28.05;;;;;;;0.47;92.30;98959.91;1725835;82;21128;-71
2020/12/29 02:20:16;;;;;;;58.05;29.27;;;;;;;0.46;92.28;98957.47;1691654;82;21128;-71
2020/12/29 02:22:47;;;;;;;60.40;30.27;;;;;;;0.45;92.28;98970.20;1743142;81;21373;-71
2020/12/29 02:25:15;;;;;;;66.53;28.52;;;;;;;0.46;92.29;98974.52;1734049;82;21175;-70
2020/12/29 02:27:48;;;;;;;59.50;27.73;;;;;;;0.47;92.37;98972.64;1713589;83;21162;-70
2020/12/29 02:30:19;;;;;;;54.75;27.95;;;;;;;0.48;92.35;98981.86;1730856;82;21136;-71
2020/12/29 02:32:47;;;;;;;58.68;28.42;;;;;;;0.48;92.32;98983.22;1743090;81;21086;-70
2020/12/29 02:35:15;;;;;;;52.88;27.25;;;;;;;0.47;92.23;98980.24;1733932;82;21204;-70
2020/12/29 02:37:44;;;;;;;56.73;27.70;;;;;;;0.45;92.18;98979.69;1713822;83;21123;-70
2020/12/29 02:40:12;;;;;;;55.75;28.80;;;;;;;0.43;92.21;98987.27;1733240;82;21168;-71
2020/12/29 02:42:40;;;;;;;52.45;25.17;;;;;;;0.44;92.35;98975.89;1725219;82;21128;-71
2020/12/29 02:45:08;;;;;;;49.77;24.75;;;;;;;0.45;92.37;98980.22;1743575;81;21169;-71
2020/12/29 02:47:36;;;;;;;44.55;24.47;;;;;;;0.46;92.42;98978.59;1734020;82;21663;-71
2020/12/29 02:50:09;;;;;;;41.28;21.45;;;;;;;0.48;92.47;98971.55;1713226;82;21107;-71
2020/12/29 02:52:36;;;;;;;47.23;25.02;;;;;;;0.50;92.41;98962.61;1733848;82;21156;-71
2020/12/29 02:55:06;;;;;;;47.93;24.87;;;;;;;0.51;92.44;98964.27;1713614;83;21142;-72
2020/12/29 02:57:34;;;;;;;47.15;24.47;;;;;;;0.52;92.38;98959.63;1704874;82;21148;-71
2020/12/29 03:00:06;;;;;;;62.27;27.30;;;;;;;0.50;92.31;98953.12;1724217;81;21133;-70
2020/12/29 03:02:35;;;;;;;45.30;25.57;;;;;;;0.51;92.40;98949.87;1728119;82;21595;-71
2020/12/29 03:05:04;;;;;;;48.50;26.30;;;;;;;0.50;92.37;98945.52;1731256;82;21108;-71
2020/12/29 03:07:31;;;;;;;49.77;25.37;;;;;;;0.48;92.36;98954.75;1726038;82;21426;-71
2020/12/29 03:09:59;;;;;;;44.35;23.27;;;;;;;0.51;92.41;98962.08;1711845;83;21580;-70
2020/12/29 03:12:28;;;;;;;40.58;22.25;;;;;;;0.50;92.39;98957.19;1742457;81;21583;-70
2020/12/29 03:14:56;;;;;;;43.98;21.93;;;;;;;0.47;92.36;98959.91;1704577;82;21132;-71
2020/12/29 03:17:25;;;;;;;33.85;20.97;;;;;;;0.47;92.39;98949.06;1733727;82;21128;-71
2020/12/29 03:20:07;;;;;;;34.53;19.20;;;;;;;0.48;92.40;98956.63;1733320;82;21124;-71
2020/12/29 03:22:35;;;;;;;33.45;18.32;;;;;;;0.47;92.40;98948.23;1733711;81;21168;-71
2020/12/29 03:25:02;;;;;;;30.17;17.95;;;;;;;0.46;92.43;98948.77;1737646;81;22141;-70
2020/12/29 03:27:30;;;;;;;30.48;17.32;;;;;;;0.47;92.48;98930.09;1734380;82;21140;-72
2020/12/29 03:29:58;;;;;;;37.20;19.67;;;;;;;0.47;92.46;98924.66;1711748;83;21159;-72
2020/12/29 03:32:25;;;;;;;30.80;19.50;;;;;;;0.47;92.48;98924.66;1714323;82;21170;-72
2020/12/29 03:35:01;;;;;;;37.98;21.80;;;;;;;0.47;92.48;98931.44;1733960;82;21144;-72
2020/12/29 03:37:29;;;;;;;31.30;17.07;;;;;;;0.47;92.48;98921.13;1717346;81;22065;-71
2020/12/29 03:40:00;;;;;;;35.68;19.90;;;;;;;0.48;92.50;98933.59;1715262;83;21095;-72
2020/12/29 03:42:29;;;;;;;38.48;20.27;;;;;;;0.47;92.58;98925.19;1731910;82;21156;-72
2020/12/29 03:44:57;;;;;;;36.33;21.20;;;;;;;0.48;92.65;98952.03;1698560;81;21138;-72
2020/12/29 03:47:25;;;;;;;43.48;22.55;;;;;;;0.48;92.59;98954.75;1731551;82;21164;-72
2020/12/29 03:49:52;;;;;;;46.02;23.50;;;;;;;0.46;92.62;98971.81;1742440;81;21686;-72
2020/12/29 03:52:22;;;;;;;45.17;23.87;;;;;;;0.46;92.67;98948.77;1733819;82;21148;-72
2020/12/29 03:54:49;;;;;;;38.92;22.05;;;;;;;0.50;92.78;98948.23;1716456;81;21110;-71
2020/12/29 03:57:17;;;;;;;38.42;21.50;;;;;;;0.50;92.83;98942.28;1712035;82;21138;-72
2020/12/29 03:59:49;;;;;;;34.13;16.77;;;;;;;0.53;92.79;98934.16;1734001;82;21081;-71
2020/12/29 04:02:21;;;;;;;37.58;20.23;;;;;;;0.54;92.74;98922.22;1711123;83;21208;-71
2020/12/29 04:04:49;;;;;;;39.10;22.65;;;;;;;0.55;92.78;98945.00;1742767;81;21112;-72
2020/12/29 04:07:18;;;;;;;35.88;19.50;;;;;;;0.56;92.75;98926.84;1733142;82;21577;-71
2020/12/29 04:09:46;;;;;;;32.00;17.80;;;;;;;0.56;92.70;98910.02;1735279;82;21147;-72
2020/12/29 04:12:14;;;;;;;25.77;17.10;;;;;;;0.57;92.70;98913.55;1712409;83;21154;-70
2020/12/29 04:14:41;;;;;;;27.48;17.82;;;;;;;0.58;92.65;98896.22;1733723;82;21382;-71
2020/12/29 04:17:09;;;;;;;30.82;17.77;;;;;;;0.55;92.62;98920.59;1720322;81;21202;-71
2020/12/29 04:19:39;;;;;;;28.90;17.25;;;;;;;0.55;92.63;98919.24;1750047;81;21097;-72
2020/12/29 04:22:06;;;;;;;29.37;18.70;;;;;;;0.54;92.54;98900.53;1718590;81;21151;-72
2020/12/29 04:24:35;;;;;;;27.98;17.50;;;;;;;0.51;92.56;98899.19;1753514;79;21149;-71
2020/12/29 04:27:03;;;;;;;35.88;18.05;;;;;;;0.50;92.57;98905.67;1738806;81;21632;-71
2020/12/29 04:29:31;;;;;;;29.05;16.60;;;;;;;0.48;92.56;98907.83;1739863;81;21108;-71
2020/12/29 04:32:00;;;;;;;33.40;18.95;;;;;;;0.47;92.58;98921.95;1741805;81;21209;-71
2020/12/29 04:34:28;;;;;;;38.65;20.55;;;;;;;0.45;92.61;98926.82;1739890;81;21182;-72
2020/12/29 04:36:58;;;;;;;35.90;18.00;;;;;;;0.47;92.71;98934.15;1711854;81;21633;-71
2020/12/29 04:39:33;;;;;;;37.65;18.70;;;;;;;0.47;92.70;98933.33;1739862;81;21190;-72
2020/12/29 04:42:05;;;;;;;31.02;20.00;;;;;;;0.46;92.68;98916.23;1717002;81;21206;-71
2020/12/29 04:44:32;;;;;;;33.18;19.17;;;;;;;0.45;92.69;98920.04;1700595;82;21166;-72
2020/12/29 04:47:21;;;;;;;33.18;18.15;;;;;;;0.46;92.69;98905.95;1750740;80;21126;-71
2020/12/29 04:49:50;;;;;;;32.13;18.60;;;;;;;0.46;92.70;98889.69;1748479;81;21138;-70
2020/12/29 04:52:27;;;;;;;41.37;20.92;;;;;;;0.44;92.69;98888.60;1745192;81;21276;-72
2020/12/29 04:54:56;;;;;;;42.33;20.80;;;;;;;0.43;92.65;98891.55;1717622;82;21178;-72
2020/12/29 04:57:24;;;;;;;42.98;19.87;;;;;;;0.42;92.70;98879.09;1746967;81;21175;-72
2020/12/29 04:59:57;;;;;;;33.05;20.62;;;;;;;0.41;92.73;98884.25;1747177;81;28224;-72
2020/12/29 05:02:25;;;;;;;43.58;22.35;;;;;;;0.39;92.73;98893.19;1726895;81;21138;-72
2020/12/29 05:05:13;;;;;;;41.13;22.70;;;;;;;0.39;92.84;98909.45;1729951;82;21376;-71
2020/12/29 05:07:43;;;;;;;35.55;22.52;;;;;;;0.42;92.93;98907.55;1746796;81;21558;-71
2020/12/29 05:10:11;;;;;;;42.60;23.55;;;;;;;0.42;92.93;98914.33;1739251;81;21139;-71
2020/12/29 05:12:52;;;;;;;35.48;22.22;;;;;;;0.43;93.03;98901.86;1716885;82;21169;-71
2020/12/29 05:15:20;;;;;;;34.20;20.88;;;;;;;0.44;93.03;98910.29;1717085;82;21114;-70
2020/12/29 05:17:54;;;;;;;38.65;21.52;;;;;;;0.46;92.98;98905.95;1745338;81;21203;-70
2020/12/29 05:20:33;;;;;;;39.23;22.82;;;;;;;0.45;92.93;98910.55;1706138;82;21111;-71
2020/12/29 05:22:57;;;;;;;43.48;23.67;;;;;;;0.44;92.89;98917.06;1680349;82;21179;-71
2020/12/29 05:25:25;;;;;;;41.25;22.45;;;;;;;0.44;92.88;98912.17;1729986;82;21167;-71
2020/12/29 05:27:55;;;;;;;45.52;25.60;;;;;;;0.44;93.00;98911.64;1735457;82;21471;-73
2020/12/29 05:30:23;;;;;;;55.58;24.92;;;;;;;0.45;92.95;98911.91;1733185;82;21202;-70
2020/12/29 05:32:51;;;;;;;37.50;22.48;;;;;;;0.46;92.98;98917.59;1671302;82;21148;-71
2020/12/29 05:35:19;;;;;;;40.78;21.33;;;;;;;0.47;92.98;98913.81;1737019;81;21179;-71
2020/12/29 05:37:52;;;;;;;40.60;21.40;;;;;;;0.48;92.95;98926.28;1736233;82;21119;-71
2020/12/29 05:40:29;;;;;;;33.78;19.15;;;;;;;0.47;92.92;98931.97;1736432;82;21128;-70
2020/12/29 05:42:59;;;;;;;39.80;21.42;;;;;;;0.44;92.78;98926.56;1735934;82;21371;-70
2020/12/29 05:45:34;;;;;;;39.70;21.45;;;;;;;0.43;92.85;98918.66;1729221;82;21123;-71
2020/12/29 05:48:04;;;;;;;40.60;21.00;;;;;;;0.42;92.97;98911.09;1733447;82;21140;-72
2020/12/29 05:50:35;;;;;;;43.10;20.48;;;;;;;0.43;93.00;98904.58;1733773;82;21160;-71
2020/12/29 05:53:06;;;;;;;41.80;21.07;;;;;;;0.44;93.00;98906.22;1705230;82;21208;-71
2020/12/29 05:55:34;;;;;;;37.50;20.85;;;;;;;0.42;92.98;98897.54;1734077;82;21205;-73
2020/12/29 05:58:08;;;;;;;36.93;20.27;;;;;;;0.42;93.07;98909.73;1711626;83;21551;-71
2020/12/29 06:00:39;;;;;;;41.25;21.33;;;;;;;0.42;93.13;98902.95;1713274;83;21176;-70
2020/12/29 06:03:38;;;;;;;44.75;21.17;;;;;;;0.41;93.08;98893.17;1729281;81;21156;-71
2020/12/29 06:06:09;;;;;;;32.93;18.32;;;;;;;0.39;93.11;98891.30;1736330;82;21120;-71
2020/12/29 06:08:38;;;;;;;35.25;20.12;;;;;;;0.39;93.11;98878.28;1736143;82;21585;-70
2020/12/29 06:11:14;;;;;;;39.03;23.00;;;;;;;0.38;93.13;98884.23;1733958;82;22278;-70
2020/12/29 06:13:46;;;;;;;38.92;21.60;;;;;;;0.37;93.15;98871.77;1733324;82;21162;-72
2020/12/29 06:16:17;;;;;;;42.33;21.35;;;;;;;0.38;93.23;98886.12;1734080;82;21172;-71
2020/12/29 06:18:46;;;;;;;45.58;21.82;;;;;;;0.36;93.22;98890.45;1747262;81;21581;-71
2020/12/29 06:21:18;;;;;;;35.95;20.50;;;;;;;0.36;93.37;98892.63;1750083;81;21360;-70
2020/12/29 06:23:48;;;;;;;34.40;19.52;;;;;;;0.38;93.37;98884.77;1752393;81;21597;-71
2020/12/29 06:26:19;;;;;;;33.83;18.60;;;;;;;0.38;93.32;98879.34;1720173;82;21121;-71
2020/12/29 06:28:52;;;;;;;35.85;19.77;;;;;;;0.38;93.35;98885.59;1752944;81;21107;-71
2020/12/29 06:31:29;;;;;;;35.63;19.57;;;;;;;0.37;93.36;98881.26;1720007;82;21555;-73
2020/12/29 06:33:57;;;;;;;37.17;20.08;;;;;;;0.38;93.43;98882.88;1739130;81;22333;-70
2020/12/29 06:36:27;;;;;;;33.13;18.85;;;;;;;0.38;93.39;98882.88;1749890;81;21695;-71
2020/12/29 06:39:07;;;;;;;33.42;19.55;;;;;;;0.38;93.40;98886.94;1735653;81;21554;-71
2020/12/29 06:41:35;;;;;;;32.60;18.07;;;;;;;0.39;93.49;98895.90;1753539;80;21613;-71
2020/12/29 06:44:03;;;;;;;31.45;16.62;;;;;;;0.38;93.59;98892.89;1749298;81;21150;-71
2020/12/29 06:46:58;;;;;;;31.23;17.55;;;;;;;0.39;93.65;98908.09;1719325;82;21438;-72
2020/12/29 06:49:30;;;;;;;28.57;15.58;;;;;;;0.39;93.65;98910.27;1750664;81;21147;-72
2020/12/29 06:52:17;;;;;;;27.62;15.18;;;;;;;0.41;93.67;98902.67;1742810;81;21109;-71
2020/12/29 06:54:47;;;;;;;29.95;16.93;;;;;;;0.42;93.72;98897.54;1750072;81;21151;-71
2020/12/29 06:57:14;;;;;;;26.68;15.30;;;;;;;0.44;93.73;98904.87;1750717;81;21121;-70
2020/12/29 06:59:50;;;;;;;26.07;15.18;;;;;;;0.43;93.80;98910.53;1725287;81;21575;-71
2020/12/29 07:02:21;;;;;;;27.05;15.58;;;;;;;0.44;93.91;98918.42;1749817;81;21183;-71
2020/12/29 07:04:54;;;;;;;20.10;12.00;;;;;;;0.46;93.95;98908.10;1750816;81;21135;-71
2020/12/29 07:07:33;;;;;;;26.50;14.43;;;;;;;0.46;93.90;98895.91;1750335;81;21138;-72
2020/12/29 07:10:13;;;;;;;24.25;14.53;;;;;;;0.48;93.82;98893.75;1749809;81;21129;-71
2020/12/29 07:12:51;;;;;;;27.10;15.43;;;;;;;0.47;93.81;98888.06;1728768;81;21599;-71
2020/12/29 07:15:25;;;;;;;29.45;15.60;;;;;;;0.48;93.83;98878.01;1719981;82;21138;-71
2020/12/29 07:18:00;;;;;;;26.62;15.48;;;;;;;0.51;93.90;98879.38;1719964;82;21130;-70
2020/12/29 07:20:34;;;;;;;23.65;13.83;;;;;;;0.51;93.79;98875.31;1726641;82;21135;-72
2020/12/29 07:23:06;;;;;;;24.45;13.38;;;;;;;0.51;93.89;98858.52;1736276;81;21171;-70
2020/12/29 07:25:36;;;;;;;24.63;14.55;;;;;;;0.53;93.91;98886.16;1736743;81;21151;-71
2020/12/29 07:28:06;;;;;;;25.52;14.38;;;;;;;0.53;93.87;98867.73;1723958;82;21157;-72
2020/12/29 07:30:35;;;;;;;24.20;14.38;;;;;;;0.53;93.93;98872.59;1716504;82;21155;-72
2020/12/29 07:33:04;;;;;;;19.95;11.93;;;;;;;0.54;94.00;98886.44;1703410;82;21177;-71
2020/12/29 07:35:35;;;;;;;23.32;13.55;;;;;;;0.57;94.06;98877.77;1730798;82;21124;-72
2020/12/29 07:38:17;;;;;;;26.97;14.43;;;;;;;0.58;93.98;98877.23;1732049;82;21790;-71
2020/12/29 07:40:45;;;;;;;24.27;14.07;;;;;;;0.58;94.01;98881.30;1730916;81;21126;-71
2020/12/29 07:43:15;;;;;;;32.45;15.30;;;;;;;0.60;94.07;98875.05;1722489;81;21143;-71
2020/12/29 07:45:43;;;;;;;24.35;14.00;;;;;;;0.60;94.04;98877.22;1730667;82;21182;-72
2020/12/29 07:48:12;;;;;;;27.00;15.40;;;;;;;0.62;94.08;98887.80;1739872;81;21110;-72
2020/12/29 07:50:41;;;;;;;23.92;14.55;;;;;;;0.61;94.10;98873.98;1726618;82;21187;-71
2020/12/29 07:53:12;;;;;;;25.12;13.80;;;;;;;0.64;94.11;98860.41;1706431;82;21135;-70
2020/12/29 07:55:43;;;;;;;24.12;13.62;;;;;;;0.66;94.17;98867.20;1728185;80;21146;-71
2020/12/29 07:58:12;;;;;;;27.10;13.90;;;;;;;0.68;94.13;98843.31;1705842;82;21088;-70
2020/12/29 08:00:43;;;;;;;29.63;15.20;;;;;;;0.69;94.09;98855.81;1726631;82;21595;-71
2020/12/29 08:03:12;;;;;;;31.73;14.98;;;;;;;0.69;94.08;98850.39;1684406;82;21202;-70
2020/12/29 08:05:42;;;;;;;24.95;13.75;;;;;;;0.71;94.10;98851.47;1726517;82;21122;-70
2020/12/29 08:08:12;;;;;;;22.93;12.55;;;;;;;0.73;94.09;98850.66;1706439;82;21116;-71
2020/12/29 08:10:46;;;;;;;25.20;14.45;;;;;;;0.75;94.06;98849.03;1723871;82;21181;-71
2020/12/29 08:13:16;;;;;;;29.37;14.70;;;;;;;0.75;94.07;98853.89;1716468;82;21611;-71
2020/12/29 08:15:49;;;;;;;27.60;13.58;;;;;;;0.76;94.05;98849.30;1703849;82;21360;-70
2020/12/29 08:18:18;;;;;;;26.30;13.98;;;;;;;0.77;94.04;98852.30;1735006;81;21184;-72
2020/12/29 08:20:48;;;;;;;24.82;12.60;;;;;;;0.77;94.09;98836.81;1730615;81;21372;-72
2020/12/29 08:23:20;;;;;;;25.25;14.47;;;;;;;0.80;94.17;98830.05;1749391;81;21604;-71
2020/12/29 08:25:56;;;;;;;24.43;14.95;;;;;;;0.81;94.19;98824.34;1728899;82;21116;-71
2020/12/29 08:28:30;;;;;;;22.93;13.32;;;;;;;0.84;94.22;98825.16;1746977;81;21234;-71
2020/12/29 08:31:04;;;;;;;25.72;14.23;;;;;;;0.87;94.23;98824.34;1739429;81;21641;-70
2020/12/29 08:33:39;;;;;;;22.10;12.00;;;;;;;0.88;94.22;98811.05;1739153;81;21182;-71
2020/12/29 08:36:10;;;;;;;26.17;13.30;;;;;;;0.89;94.19;98806.70;1723114;81;21163;-72
2020/12/29 08:38:45;;;;;;;22.77;13.68;;;;;;;0.90;94.12;98811.59;1739919;81;21156;-72
2020/12/29 08:41:27;;;;;;;27.22;14.53;;;;;;;0.88;94.10;98801.55;1718464;82;21642;-72
2020/12/29 08:43:54;;;;;;;20.75;12.50;;;;;;;0.89;94.13;98790.98;1744629;81;21150;-71
2020/12/29 08:46:24;;;;;;;26.82;14.28;;;;;;;0.88;94.10;98795.59;1731809;81;21118;-73
2020/12/29 08:48:58;;;;;;;21.82;13.50;;;;;;;0.88;94.13;98803.73;1748973;81;21151;-72
2020/12/29 08:51:31;;;;;;;23.67;14.93;;;;;;;0.88;94.17;98793.41;1731772;82;21129;-73
2020/12/29 08:54:16;;;;;;;23.87;12.45;;;;;;;0.88;94.18;98788.80;1729300;82;21197;-72
2020/12/29 08:56:47;;;;;;;20.62;12.05;;;;;;;0.88;94.21;98772.53;1747368;81;21185;-72
2020/12/29 08:59:19;;;;;;;22.87;12.80;;;;;;;0.87;94.27;98769.53;1739318;81;21159;-70
2020/12/29 09:01:59;;;;;;;22.82;11.28;;;;;;;0.88;94.35;98773.89;1741605;81;21120;-70
2020/12/29 09:04:33;;;;;;;22.00;12.93;;;;;;;0.89;94.41;98757.86;1739090;81;21131;-70
2020/12/29 09:07:15;;;;;;;23.73;12.63;;;;;;;0.89;94.47;98742.94;1751160;81;21381;-70
2020/12/29 09:09:56;;;;;;;22.90;12.60;;;;;;;0.91;94.53;98753.52;1734196;81;21187;-70
2020/12/29 09:12:29;;;;;;;21.20;12.45;;;;;;;0.90;94.45;98738.34;1725176;83;21127;-69
2020/12/29 09:15:14;;;;;;;18.70;11.70;;;;;;;0.90;94.46;98736.98;1728903;80;21151;-70
2020/12/29 09:17:43;;;;;;;19.37;12.45;;;;;;;0.90;94.50;98747.84;1758388;80;21140;-72
2020/12/29 09:20:23;;;;;;;21.87;12.05;;;;;;;0.90;94.49;98744.59;1755120;80;21368;-70
2020/12/29 09:23:11;;;;;;;19.90;11.57;;;;;;;0.89;94.46;98745.66;1767763;80;21109;-71
2020/12/29 09:25:59;;;;;;;25.00;13.40;;;;;;;0.89;94.47;98733.45;1753619;80;21099;-71
2020/12/29 09:28:31;;;;;;;27.40;12.47;;;;;;;0.91;94.47;98733.17;1703887;83;21161;-71
2020/12/29 09:31:01;;;;;;;20.95;11.30;;;;;;;0.88;94.55;98735.91;1701423;83;22043;-71
2020/12/29 09:33:35;;;;;;;18.15;11.68;;;;;;;0.89;94.60;98723.95;1698800;83;22307;-72
2020/12/29 09:36:07;;;;;;;22.25;13.03;;;;;;;0.89;94.58;98719.89;1694181;83;21199;-71
2020/12/29 09:38:38;;;;;;;19.37;11.97;;;;;;;0.89;94.64;98712.31;1698676;83;21193;-72
2020/12/29 09:41:09;;;;;;;22.65;13.05;;;;;;;0.91;94.70;98714.18;1644310;84;21146;-71
2020/12/29 09:43:40;;;;;;;24.45;12.60;;;;;;;0.92;94.77;98709.84;1670753;84;21178;-69
2020/12/29 09:46:07;;;;;;;17.37;10.78;;;;;;;0.95;94.85;98716.62;1667253;84;22159;-72
2020/12/29 09:48:38;;;;;;;21.10;11.50;;;;;;;0.97;94.84;98709.03;1670487;84;21167;-71
2020/12/29 09:51:05;;;;;;;21.68;11.73;;;;;;;0.97;94.81;98712.53;1698760;84;21111;-71
2020/12/29 09:53:39;;;;;;;19.92;11.78;;;;;;;0.99;94.81;98695.19;1698844;84;21164;-71
2020/12/29 09:56:06;;;;;;;19.02;11.40;;;;;;;1.02;94.81;98698.16;1666993;84;21592;-70
2020/12/29 09:58:38;;;;;;;26.48;12.28;;;;;;;1.05;94.83;98689.47;1670249;84;22170;-71
2020/12/29 10:01:07;;;;;;;21.23;11.68;;;;;;;1.08;94.91;98667.73;1667615;84;21167;-70
2020/12/29 10:03:36;;;;;;;18.98;11.28;;;;;;;1.12;94.93;98674.23;1666129;84;21634;-73
2020/12/29 10:06:04;;;;;;;16.17;10.43;;;;;;;1.14;94.91;98662.57;1670444;84;21231;-71
2020/12/29 10:08:33;;;;;;;19.55;12.15;;;;;;;1.18;94.93;98668.23;1670125;84;21571;-71
2020/12/29 10:11:03;;;;;;;20.43;11.40;;;;;;;1.18;94.85;98660.08;1670219;84;21440;-71
2020/12/29 10:13:32;;;;;;;21.75;11.83;;;;;;;1.18;94.83;98658.73;1670028;84;21167;-71
2020/12/29 10:16:02;;;;;;;16.35;10.65;;;;;;;1.19;94.81;98653.58;1669890;84;21226;-71
2020/12/29 10:18:48;;;;;;;21.52;12.10;;;;;;;1.20;94.79;98642.98;1666638;84;21624;-71
2020/12/29 10:21:15;;;;;;;27.62;13.50;;;;;;;1.21;94.77;98644.63;1670072;84;21159;-71
2020/12/29 10:23:43;;;;;;;25.35;13.85;;;;;;;1.21;94.77;98639.98;1670067;84;21390;-72
2020/12/29 10:26:10;;;;;;;24.98;13.55;;;;;;;1.23;94.75;98647.84;1670020;84;21293;-70
2020/12/29 10:28:48;;;;;;;19.55;12.20;;;;;;;1.21;94.66;98640.55;1623943;84;21184;-71
2020/12/29 10:31:18;;;;;;;17.52;11.57;;;;;;;1.22;94.74;98647.59;1669980;84;21682;-71
2020/12/29 10:33:46;;;;;;;20.32;11.88;;;;;;;1.24;94.79;98652.73;1661780;84;21096;-70
2020/12/29 10:36:15;;;;;;;25.10;12.95;;;;;;;1.25;94.79;98638.88;1700881;84;21556;-71
2020/12/29 10:38:42;;;;;;;26.02;13.53;;;;;;;1.26;94.78;98643.24;1693486;84;21136;-72
2020/12/29 10:41:10;;;;;;;21.90;13.00;;;;;;;1.28;94.79;98634.25;1671545;84;21218;-71
2020/12/29 10:43:37;;;;;;;20.23;11.85;;;;;;;1.30;94.84;98632.61;1674654;84;21614;-70
2020/12/29 10:46:11;;;;;;;17.95;10.95;;;;;;;1.34;94.91;98632.33;1666779;86;21172;-70
2020/12/29 10:48:39;;;;;;;22.82;12.13;;;;;;;1.38;94.97;98646.16;1670181;84;21481;-71
2020/12/29 10:51:07;;;;;;;22.45;12.47;;;;;;;1.41;94.97;98649.12;1672231;84;21116;-71
2020/12/29 10:53:35;;;;;;;16.95;10.65;;;;;;;1.44;94.96;98639.59;1699140;84;21159;-71
2020/12/29 10:56:03;;;;;;;17.25;10.28;;;;;;;1.46;94.95;98634.70;1699004;84;21661;-71
2020/12/29 11:01:21;;;;;;;20.17;11.70;;;;;;;1.50;94.82;98618.66;1808262;77;22393;-72
2020/12/29 11:03:50;;;;;;;19.10;10.68;;;;;;;1.47;94.81;98620.59;1791643;79;21595;-71
2020/12/29 11:06:23;;;;;;;18.80;11.45;;;;;;;1.49;94.83;98641.46;1801383;79;21204;-71
2020/12/29 11:08:52;;;;;;;17.98;10.88;;;;;;;1.49;94.82;98634.67;1790815;79;21151;-72
2020/12/29 11:11:22;;;;;;;19.10;11.57;;;;;;;1.51;94.82;98614.84;1752031;80;21149;-71
2020/12/29 11:13:49;;;;;;;19.25;11.73;;;;;;;1.52;94.79;98622.70;1725805;82;21145;-72
2020/12/29 11:16:21;;;;;;;18.50;11.28;;;;;;;1.52;94.88;98621.34;1723857;82;20972;-73
2020/12/29 11:18:50;;;;;;;19.67;10.72;;;;;;;1.53;94.96;98625.70;1740644;81;21362;-72
2020/12/29 11:21:20;;;;;;;18.15;10.78;;;;;;;1.53;95.07;98621.63;1770006;80;21061;-72
2020/12/29 11:23:48;;;;;;;20.17;11.57;;;;;;;1.54;95.14;98628.67;1759973;80;21189;-71
2020/12/29 11:26:20;;;;;;;24.67;11.88;;;;;;;1.56;95.23;98620.24;1767378;80;21098;-71
2020/12/29 11:28:48;;;;;;;20.80;10.53;;;;;;;1.58;95.29;98603.12;1757727;80;21601;-72
2020/12/29 11:31:20;;;;;;;23.12;12.13;;;;;;;1.60;95.36;98609.62;1757312;80;21492;-72
2020/12/29 11:33:50;;;;;;;23.92;10.90;;;;;;;1.62;95.36;98604.73;1755108;80;21135;-71
2020/12/29 11:36:21;;;;;;;17.23;10.75;;;;;;;1.63;95.31;98599.55;1740872;81;21205;-71
2020/12/29 11:38:49;;;;;;;24.27;13.08;;;;;;;1.63;95.27;98611.23;1734032;81;21123;-72
2020/12/29 11:41:18;;;;;;;22.62;12.40;;;;;;;1.63;95.29;98594.12;1741860;81;21169;-71
2020/12/29 11:43:46;;;;;;;17.87;10.95;;;;;;;1.66;95.33;98601.70;1741070;81;21257;-70
2020/12/29 11:46:14;;;;;;;22.73;12.33;;;;;;;1.66;95.28;98588.94;1738206;81;21148;-72
2020/12/29 11:48:41;;;;;;;21.07;11.50;;;;;;;1.68;95.27;98615.28;1739826;81;21121;-72